sensor_id;sensor_type;location;lat;lon;timestamp;pressure;altitude;pressure_sealevel;temperature;humidity
73105;BME280;61296;50.526;30.792;2022-10-31T00:10:54;99173.19;;;8.53;82.20
73105;BME280;61296;50.526;30.792;2022-10-31T00:26:14;99162.03;;;8.39;83.21
73105;BME280;61296;50.526;30.792;2022-10-31T00:41:33;99152.03;;;8.27;83.85
73105;BME280;61296;50.526;30.792;2022-10-31T00:56:53;99131.66;;;8.25;84.42
73105;BME280;61296;50.526;30.792;2022-10-31T01:12:12;99137.78;;;8.15;84.75
73105;BME280;61296;50.526;30.792;2022-10-31T01:27:32;99143.00;;;8.00;85.26
73105;BME280;61296;50.526;30.792;2022-10-31T01:42:51;99157.94;;;8.03;85.29
73105;BME280;61296;50.526;30.792;2022-10-31T01:58:17;99150.56;;;8.07;84.84
73105;BME280;61296;50.526;30.792;2022-10-31T02:13:38;99182.13;;;8.24;83.71
73105;BME280;61296;50.526;30.792;2022-10-31T03:31:50;99307.66;;;7.76;60.81
73105;BME280;61296;50.526;30.792;2022-10-31T03:47:12;99293.28;;;7.05;61.86
73105;BME280;61296;50.526;30.792;2022-10-31T04:02:33;99340.31;;;6.95;63.86
73105;BME280;61296;50.526;30.792;2022-10-31T04:17:56;99311.28;;;6.40;65.71
73105;BME280;61296;50.526;30.792;2022-10-31T04:33:18;99373.25;;;6.51;65.47
73105;BME280;61296;50.526;30.792;2022-10-31T04:48:39;99404.88;;;6.36;64.49
73105;BME280;61296;50.526;30.792;2022-10-31T05:04:00;99336.44;;;5.73;64.03
73105;BME280;61296;50.526;30.792;2022-10-31T05:19:19;99431.41;;;6.36;61.55
73105;BME280;61296;50.526;30.792;2022-10-31T05:35:21;99483.88;;;6.73;60.70
73105;BME280;61296;50.526;30.792;2022-10-31T05:51:05;99536.75;;;6.65;59.69
73105;BME280;61296;50.526;30.792;2022-10-31T06:29:45;99562.69;;;6.71;52.89
73105;BME280;61296;50.526;30.792;2022-10-31T06:45:13;99499.59;;;6.20;52.36
73105;BME280;61296;50.526;30.792;2022-10-31T07:00:51;99543.38;;;6.36;50.96
73105;BME280;61296;50.526;30.792;2022-10-31T07:16:11;99566.28;;;6.59;49.63
73105;BME280;61296;50.526;30.792;2022-10-31T07:31:32;99575.69;;;6.46;46.82
73105;BME280;61296;50.526;30.792;2022-10-31T07:46:57;99578.84;;;6.76;47.84
73105;BME280;61296;50.526;30.792;2022-10-31T08:02:35;99555.84;;;6.49;46.90
73105;BME280;61296;50.526;30.792;2022-10-31T08:18:14;99546.00;;;6.32;47.75
73105;BME280;61296;50.526;30.792;2022-10-31T08:33:35;99536.16;;;6.44;47.09
73105;BME280;61296;50.526;30.792;2022-10-31T08:49:21;99589.03;;;6.91;46.17
73105;BME280;61296;50.526;30.792;2022-10-31T09:04:41;99554.78;;;6.82;47.32
73105;BME280;61296;50.526;30.792;2022-10-31T09:20:00;99575.06;;;7.24;44.15
73105;BME280;61296;50.526;30.792;2022-10-31T09:35:26;99591.38;;;7.21;44.17
73105;BME280;61296;50.526;30.792;2022-10-31T09:51:07;99563.50;;;7.31;43.07
73105;BME280;61296;50.526;30.792;2022-10-31T10:06:44;99616.81;;;7.69;42.19
73105;BME280;61296;50.526;30.792;2022-10-31T10:22:47;99541.72;;;7.50;40.76
73105;BME280;61296;50.526;30.792;2022-10-31T11:09:24;99626.63;;;8.21;38.04
73105;BME280;61296;50.526;30.792;2022-10-31T11:24:44;99621.03;;;8.33;37.16
73105;BME280;61296;50.526;30.792;2022-10-31T11:40:05;99632.94;;;8.56;37.49
73105;BME280;61296;50.526;30.792;2022-10-31T11:55:34;99626.88;;;8.47;36.30
73105;BME280;61296;50.526;30.792;2022-10-31T12:42:06;99704.94;;;8.73;36.20
73105;BME280;61296;50.526;30.792;2022-10-31T12:57:41;99727.50;;;8.82;36.80
73105;BME280;61296;50.526;30.792;2022-10-31T13:13:10;99688.13;;;8.74;36.83
73105;BME280;61296;50.526;30.792;2022-10-31T13:28:38;99628.78;;;8.11;36.16
73105;BME280;61296;50.526;30.792;2022-10-31T13:44:05;99756.78;;;8.78;36.24
73105;BME280;61296;50.526;30.792;2022-10-31T13:59:28;99696.63;;;8.18;35.83
73105;BME280;61296;50.526;30.792;2022-10-31T14:14:55;99751.06;;;8.20;36.93
73105;BME280;61296;50.526;30.792;2022-10-31T14:30:18;99789.88;;;8.22;38.52
73105;BME280;61296;50.526;30.792;2022-10-31T14:45:56;99750.69;;;7.74;39.41
73105;BME280;61296;50.526;30.792;2022-10-31T15:01:27;99756.78;;;7.39;41.01
73105;BME280;61296;50.526;30.792;2022-10-31T15:16:47;99748.41;;;6.92;42.56
73105;BME280;61296;50.526;30.792;2022-10-31T15:32:19;99824.03;;;7.00;43.39
73105;BME280;61296;50.526;30.792;2022-10-31T15:47:45;99779.44;;;6.47;43.65
73105;BME280;61296;50.526;30.792;2022-10-31T16:18:36;99795.69;;;6.31;43.25
73105;BME280;61296;50.526;30.792;2022-10-31T16:34:14;99858.31;;;6.61;43.32
73105;BME280;61296;50.526;30.792;2022-10-31T16:49:33;99875.06;;;6.59;43.57
73105;BME280;61296;50.526;30.792;2022-10-31T17:04:53;99843.16;;;6.27;44.36
73105;BME280;61296;50.526;30.792;2022-10-31T17:20:18;99857.44;;;6.12;45.03
73105;BME280;61296;50.526;30.792;2022-10-31T17:35:38;99937.66;;;6.52;45.77
73105;BME280;61296;50.526;30.792;2022-10-31T17:51:05;99925.59;;;6.08;47.13
73105;BME280;61296;50.526;30.792;2022-10-31T18:06:24;99907.34;;;5.58;48.89
73105;BME280;61296;50.526;30.792;2022-10-31T18:21:44;99958.59;;;5.53;51.05
73105;BME280;61296;50.526;30.792;2022-10-31T18:37:04;99870.66;;;4.76;52.13
73105;BME280;61296;50.526;30.792;2022-10-31T18:52:24;99951.38;;;4.89;53.49
73105;BME280;61296;50.526;30.792;2022-10-31T19:07:43;99909.72;;;4.42;54.69
73105;BME280;61296;50.526;30.792;2022-10-31T19:23:03;99924.91;;;4.51;55.23
73105;BME280;61296;50.526;30.792;2022-10-31T19:38:22;100013.13;;;4.85;56.07
73105;BME280;61296;50.526;30.792;2022-10-31T19:53:41;99965.53;;;4.18;57.45
73105;BME280;61296;50.526;30.792;2022-10-31T20:09:05;100027.63;;;4.42;58.94
73105;BME280;61296;50.526;30.792;2022-10-31T20:24:26;100015.13;;;4.32;59.52
73105;BME280;61296;50.526;30.792;2022-10-31T20:39:45;99953.81;;;3.83;60.21
73105;BME280;61296;50.526;30.792;2022-10-31T20:55:06;99956.06;;;3.55;61.19
73105;BME280;61296;50.526;30.792;2022-10-31T21:10:25;99998.78;;;3.63;62.77
73105;BME280;61296;50.526;30.792;2022-10-31T21:25:45;100100.50;;;4.11;63.57
73105;BME280;61296;50.526;30.792;2022-10-31T21:41:07;99984.66;;;3.35;65.02
73105;BME280;61296;50.526;30.792;2022-10-31T21:56:27;100000.31;;;3.38;65.47
73105;BME280;61296;50.526;30.792;2022-10-31T22:11:47;99997.03;;;3.10;66.60
73105;BME280;61296;50.526;30.792;2022-10-31T22:27:06;100004.06;;;3.03;67.54
73105;BME280;61296;50.526;30.792;2022-10-31T22:42:26;100067.13;;;3.31;68.65
73105;BME280;61296;50.526;30.792;2022-10-31T22:57:45;99991.72;;;2.66;69.54
73105;BME280;61296;50.526;30.792;2022-10-31T23:13:04;100051.75;;;2.86;70.28
73105;BME280;61296;50.526;30.792;2022-10-31T23:28:42;100058.78;;;2.87;71.38
73105;BME280;61296;50.526;30.792;2022-10-31T23:44:02;100149.41;;;3.14;72.47
73105;BME280;61296;50.526;30.792;2022-10-31T23:59:21;100022.47;;;2.30;73.82
